SBI6202 UHSS-UHWW
Flight info
| Callsign | SBI6202 |
|---|---|
| Flight time | 1h 36m |
| Altitude | 32000 |
| Route | DCT KENOM B919 TIMIT R810 TD B355 BG G714 DAGES DCT |
| Aircraft | B738/M-SADE2FGHIJ1RWXY/LB1 |
Departure
| Time | 2026-04-26 05:41 |
|---|---|
| Airport | Yuzhno-Sakhalinsk International Airport (UHSS) |
Arrival
| Time | 2026-04-26 07:17 |
|---|---|
| Airport | Vladivostok International Airport (UHWW) |
| Time | Latitude | Longitude | Altitude | Speed | Heading |
|---|---|---|---|---|---|
| 2026-04-26 05:08 | 46.88800 | 142.72196 | 48 ft | 0 kts | 90° |
| 2026-04-26 05:27 | 46.88800 | 142.72195 | 48 ft | 1 kts | 90° |
| 2026-04-26 05:27 | 46.88800 | 142.72175 | 48 ft | 3 kts | 87° |
| 2026-04-26 05:27 | 46.88798 | 142.72145 | 48 ft | 3 kts | 79° |
| 2026-04-26 05:27 | 46.88793 | 142.72117 | 48 ft | 3 kts | 63° |
| 2026-04-26 05:28 | 46.88782 | 142.72095 | 48 ft | 3 kts | 28° |
| 2026-04-26 05:28 | 46.88772 | 142.72090 | 48 ft | 0 kts | 0° |
| 2026-04-26 05:34 | 46.88783 | 142.72090 | 48 ft | 3 kts | 0° |
| 2026-04-26 05:35 | 46.88806 | 142.72090 | 48 ft | 3 kts | 0° |
| 2026-04-26 05:35 | 46.88828 | 142.72090 | 48 ft | 3 kts | 0° |
| 2026-04-26 05:35 | 46.88853 | 142.72091 | 45 ft | 4 kts | 0° |
| 2026-04-26 05:35 | 46.88887 | 142.72091 | 46 ft | 6 kts | 0° |
| 2026-04-26 05:36 | 46.88931 | 142.72087 | 48 ft | 7 kts | 351° |
| 2026-04-26 05:36 | 46.88974 | 142.72066 | 48 ft | 7 kts | 334° |
| 2026-04-26 05:36 | 46.89001 | 142.72046 | 47 ft | 7 kts | 331° |
| 2026-04-26 05:36 | 46.89044 | 142.72005 | 47 ft | 11 kts | 317° |
| 2026-04-26 05:37 | 46.89084 | 142.71888 | 51 ft | 14 kts | 275° |
| 2026-04-26 05:37 | 46.89114 | 142.71769 | 53 ft | 13 kts | 334° |
| 2026-04-26 05:37 | 46.89202 | 142.71745 | 56 ft | 13 kts | 2° |
| 2026-04-26 05:37 | 46.89290 | 142.71750 | 53 ft | 13 kts | 2° |
| 2026-04-26 05:38 | 46.89398 | 142.71754 | 55 ft | 17 kts | 359° |
| 2026-04-26 05:38 | 46.89535 | 142.71753 | 52 ft | 24 kts | 359° |
| 2026-04-26 05:38 | 46.89726 | 142.71757 | 57 ft | 28 kts | 4° |
| 2026-04-26 05:38 | 46.89935 | 142.71761 | 53 ft | 32 kts | 4° |
| 2026-04-26 05:39 | 46.90028 | 142.71822 | 51 ft | 11 kts | 40° |
| 2026-04-26 05:39 | 46.90061 | 142.71827 | 51 ft | 3 kts | 333° |
| 2026-04-26 05:39 | 46.90075 | 142.71792 | 56 ft | 5 kts | 282° |
| 2026-04-26 05:39 | 46.90050 | 142.71764 | 53 ft | 5 kts | 183° |
| 2026-04-26 05:40 | 46.90014 | 142.71769 | 51 ft | 5 kts | 175° |
| 2026-04-26 05:40 | 46.89864 | 142.71767 | 50 ft | 53 kts | 180° |
| 2026-04-26 05:40 | 46.89262 | 142.71750 | 55 ft | 120 kts | 180° |
| 2026-04-26 05:40 | 46.88230 | 142.71713 | 111 ft | 172 kts | 182° |
| 2026-04-26 05:41 | 46.86980 | 142.71646 | 794 ft | 182 kts | 182° |
| 2026-04-26 05:41 | 46.85695 | 142.71325 | 1529 ft | 188 kts | 205° |
| 2026-04-26 05:41 | 46.84629 | 142.70218 | 2308 ft | 196 kts | 225° |
| 2026-04-26 05:41 | 46.83845 | 142.68483 | 2510 ft | 216 kts | 249° |
| 2026-04-26 05:42 | 46.83597 | 142.66262 | 2827 ft | 227 kts | 269° |
| 2026-04-26 05:42 | 46.83664 | 142.63923 | 3315 ft | 230 kts | 272° |
| 2026-04-26 05:42 | 46.83745 | 142.61585 | 3863 ft | 231 kts | 270° |
| 2026-04-26 05:42 | 46.83788 | 142.59234 | 4449 ft | 232 kts | 269° |
| 2026-04-26 05:43 | 46.83819 | 142.56890 | 5111 ft | 233 kts | 269° |
| 2026-04-26 05:43 | 46.83854 | 142.54536 | 5761 ft | 231 kts | 269° |
| 2026-04-26 05:43 | 46.83877 | 142.52174 | 6194 ft | 235 kts | 268° |
| 2026-04-26 05:43 | 46.83888 | 142.49791 | 6705 ft | 236 kts | 269° |
| 2026-04-26 05:44 | 46.83922 | 142.47285 | 6989 ft | 255 kts | 268° |
| 2026-04-26 05:44 | 46.83946 | 142.44663 | 7680 ft | 257 kts | 268° |
| 2026-04-26 05:44 | 46.83968 | 142.42098 | 8250 ft | 260 kts | 269° |
| 2026-04-26 05:44 | 46.83977 | 142.39443 | 8812 ft | 263 kts | 267° |
| 2026-04-26 05:45 | 46.83982 | 142.36768 | 9404 ft | 264 kts | 267° |
| 2026-04-26 05:45 | 46.83976 | 142.34097 | 10015 ft | 264 kts | 268° |
| 2026-04-26 05:45 | 46.84006 | 142.31382 | 10354 ft | 274 kts | 268° |
| 2026-04-26 05:45 | 46.84033 | 142.28499 | 10528 ft | 292 kts | 268° |
| 2026-04-26 05:46 | 46.84038 | 142.25451 | 10655 ft | 307 kts | 268° |
| 2026-04-26 05:46 | 46.84040 | 142.22255 | 11025 ft | 320 kts | 268° |
| 2026-04-26 05:46 | 46.84055 | 142.18999 | 11677 ft | 321 kts | 269° |
| 2026-04-26 05:46 | 46.84084 | 142.15738 | 12383 ft | 319 kts | 269° |
| 2026-04-26 05:47 | 46.84102 | 142.12506 | 13014 ft | 318 kts | 268° |
| 2026-04-26 05:47 | 46.84130 | 142.09248 | 13478 ft | 323 kts | 269° |
| 2026-04-26 05:47 | 46.84160 | 142.05962 | 13921 ft | 324 kts | 269° |
| 2026-04-26 05:47 | 46.84161 | 142.02698 | 13959 ft | 320 kts | 268° |
| 2026-04-26 05:48 | 46.84153 | 141.99412 | 13980 ft | 324 kts | 268° |
| 2026-04-26 05:48 | 46.84158 | 141.96115 | 13985 ft | 324 kts | 268° |
| 2026-04-26 05:48 | 46.84170 | 141.92792 | 13998 ft | 329 kts | 268° |
| 2026-04-26 05:48 | 46.84177 | 141.89446 | 13995 ft | 331 kts | 268° |
| 2026-04-26 05:49 | 46.84190 | 141.86105 | 13981 ft | 326 kts | 268° |
| 2026-04-26 05:49 | 46.84200 | 141.79549 | 13995 ft | 328 kts | 267° |
| 2026-04-26 05:49 | 46.84127 | 141.76200 | 14482 ft | 331 kts | 265° |
| 2026-04-26 05:50 | 46.83956 | 141.72859 | 15147 ft | 330 kts | 263° |
| 2026-04-26 05:50 | 46.83732 | 141.69512 | 15698 ft | 332 kts | 263° |
| 2026-04-26 05:50 | 46.83501 | 141.66148 | 16267 ft | 334 kts | 263° |
| 2026-04-26 05:50 | 46.83277 | 141.62759 | 16794 ft | 336 kts | 263° |
| 2026-04-26 05:51 | 46.83061 | 141.59344 | 17298 ft | 339 kts | 263° |
| 2026-04-26 05:51 | 46.82853 | 141.55917 | 17778 ft | 340 kts | 263° |
| 2026-04-26 05:51 | 46.82638 | 141.52459 | 18199 ft | 343 kts | 264° |
| 2026-04-26 05:51 | 46.82433 | 141.48972 | 18685 ft | 345 kts | 264° |
| 2026-04-26 05:52 | 46.82234 | 141.45494 | 19180 ft | 346 kts | 264° |
| 2026-04-26 05:52 | 46.82032 | 141.41978 | 19602 ft | 349 kts | 264° |
| 2026-04-26 05:52 | 46.81824 | 141.38420 | 20052 ft | 352 kts | 264° |
| 2026-04-26 05:52 | 46.81624 | 141.34857 | 20508 ft | 354 kts | 264° |
| 2026-04-26 05:53 | 46.81421 | 141.31275 | 20842 ft | 355 kts | 264° |
| 2026-04-26 05:53 | 46.81235 | 141.27715 | 21133 ft | 360 kts | 264° |
| 2026-04-26 05:53 | 46.81011 | 141.24019 | 21591 ft | 360 kts | 263° |
| 2026-04-26 05:53 | 46.80782 | 141.20375 | 22037 ft | 361 kts | 263° |
| 2026-04-26 05:54 | 46.80557 | 141.16759 | 22386 ft | 363 kts | 263° |
| 2026-04-26 05:54 | 46.80329 | 141.13078 | 22759 ft | 365 kts | 263° |
| 2026-04-26 05:54 | 46.80101 | 141.09377 | 23124 ft | 367 kts | 263° |
| 2026-04-26 05:54 | 46.79873 | 141.05653 | 23498 ft | 369 kts | 263° |
| 2026-04-26 05:55 | 46.79643 | 141.01919 | 23833 ft | 371 kts | 263° |
| 2026-04-26 05:55 | 46.79412 | 140.98166 | 24161 ft | 372 kts | 263° |
| 2026-04-26 05:55 | 46.79179 | 140.94397 | 24486 ft | 374 kts | 263° |
| 2026-04-26 05:55 | 46.78943 | 140.90605 | 24796 ft | 376 kts | 263° |
| 2026-04-26 05:56 | 46.78704 | 140.86792 | 25091 ft | 378 kts | 263° |
| 2026-04-26 05:56 | 46.78464 | 140.82975 | 25405 ft | 379 kts | 263° |
| 2026-04-26 05:56 | 46.78221 | 140.79144 | 25708 ft | 380 kts | 263° |
| 2026-04-26 05:56 | 46.77976 | 140.75293 | 25975 ft | 382 kts | 263° |
| 2026-04-26 05:57 | 46.77729 | 140.71432 | 26264 ft | 383 kts | 263° |
| 2026-04-26 05:57 | 46.77479 | 140.67561 | 26540 ft | 384 kts | 263° |
| 2026-04-26 05:57 | 46.77228 | 140.63675 | 26789 ft | 386 kts | 263° |
| 2026-04-26 05:57 | 46.76974 | 140.59767 | 27045 ft | 387 kts | 263° |
| 2026-04-26 05:58 | 46.76718 | 140.55857 | 27314 ft | 388 kts | 263° |
| 2026-04-26 05:58 | 46.76466 | 140.51949 | 27570 ft | 391 kts | 263° |
| 2026-04-26 05:58 | 46.76204 | 140.47975 | 27924 ft | 391 kts | 262° |
| 2026-04-26 05:58 | 46.75960 | 140.44031 | 28173 ft | 391 kts | 263° |
| 2026-04-26 05:59 | 46.75699 | 140.40088 | 28350 ft | 393 kts | 263° |
| 2026-04-26 05:59 | 46.75422 | 140.36084 | 28520 ft | 395 kts | 263° |
| 2026-04-26 05:59 | 46.75147 | 140.32146 | 28753 ft | 396 kts | 263° |
| 2026-04-26 05:59 | 46.74871 | 140.28157 | 29012 ft | 395 kts | 263° |
| 2026-04-26 06:00 | 46.74599 | 140.24172 | 29333 ft | 393 kts | 263° |
| 2026-04-26 06:00 | 46.74329 | 140.20217 | 29638 ft | 392 kts | 263° |
| 2026-04-26 06:00 | 46.74057 | 140.16272 | 29887 ft | 391 kts | 262° |
| 2026-04-26 06:00 | 46.73782 | 140.12326 | 30171 ft | 390 kts | 262° |
| 2026-04-26 06:01 | 46.73493 | 140.08410 | 30475 ft | 389 kts | 262° |
| 2026-04-26 06:01 | 46.73195 | 140.04493 | 30723 ft | 388 kts | 262° |
| 2026-04-26 06:01 | 46.72898 | 140.00586 | 30970 ft | 388 kts | 262° |
| 2026-04-26 06:01 | 46.72607 | 139.96680 | 31261 ft | 386 kts | 262° |
| 2026-04-26 06:02 | 46.72327 | 139.92803 | 31538 ft | 385 kts | 262° |
| 2026-04-26 06:02 | 46.72049 | 139.88917 | 31760 ft | 385 kts | 262° |
| 2026-04-26 06:02 | 46.71771 | 139.85042 | 31973 ft | 385 kts | 262° |
| 2026-04-26 06:02 | 46.71491 | 139.81171 | 32222 ft | 384 kts | 262° |
| 2026-04-26 06:03 | 46.71210 | 139.77317 | 32527 ft | 381 kts | 262° |
| 2026-04-26 06:03 | 46.70929 | 139.73480 | 32773 ft | 380 kts | 262° |
| 2026-04-26 06:03 | 46.70647 | 139.69646 | 32932 ft | 382 kts | 262° |
| 2026-04-26 06:03 | 46.70362 | 139.65813 | 33058 ft | 383 kts | 262° |
| 2026-04-26 06:04 | 46.70073 | 139.61933 | 33194 ft | 385 kts | 262° |
| 2026-04-26 06:04 | 46.69783 | 139.58055 | 33360 ft | 385 kts | 262° |
| 2026-04-26 06:04 | 46.69491 | 139.54172 | 33601 ft | 384 kts | 262° |
| 2026-04-26 06:04 | 46.69201 | 139.50330 | 33831 ft | 383 kts | 262° |
| 2026-04-26 06:05 | 46.68909 | 139.46462 | 33951 ft | 384 kts | 262° |
| 2026-04-26 06:05 | 46.68320 | 139.38754 | 33955 ft | 385 kts | 262° |
| 2026-04-26 06:06 | 46.67732 | 139.31059 | 33949 ft | 381 kts | 262° |
| 2026-04-26 06:06 | 46.67150 | 139.23434 | 33953 ft | 378 kts | 262° |
| 2026-04-26 06:07 | 46.66567 | 139.15849 | 33953 ft | 376 kts | 261° |
| 2026-04-26 06:07 | 46.65980 | 139.08301 | 33955 ft | 375 kts | 261° |
| 2026-04-26 06:08 | 46.65389 | 139.00754 | 33959 ft | 376 kts | 261° |
| 2026-04-26 06:08 | 46.64790 | 138.93176 | 33957 ft | 377 kts | 261° |
| 2026-04-26 06:09 | 46.64184 | 138.85577 | 33964 ft | 379 kts | 261° |
| 2026-04-26 06:09 | 46.63569 | 138.77933 | 33954 ft | 381 kts | 261° |
| 2026-04-26 06:10 | 46.62953 | 138.70316 | 33945 ft | 383 kts | 261° |
| 2026-04-26 06:10 | 46.62173 | 138.62664 | 33932 ft | 382 kts | 255° |
| 2026-04-26 06:11 | 46.60687 | 138.55236 | 33949 ft | 382 kts | 252° |
| 2026-04-26 06:11 | 46.59226 | 138.47803 | 33935 ft | 383 kts | 254° |
| 2026-04-26 06:12 | 46.57985 | 138.40272 | 33949 ft | 382 kts | 255° |
| 2026-04-26 06:12 | 46.56729 | 138.32778 | 33936 ft | 381 kts | 254° |
| 2026-04-26 06:13 | 46.55402 | 138.25321 | 33933 ft | 381 kts | 254° |
| 2026-04-26 06:13 | 46.54062 | 138.17941 | 33932 ft | 380 kts | 254° |
| 2026-04-26 06:14 | 46.52715 | 138.10542 | 33952 ft | 379 kts | 253° |
| 2026-04-26 06:14 | 46.51359 | 138.03142 | 33951 ft | 378 kts | 253° |
| 2026-04-26 06:15 | 46.49994 | 137.95772 | 33933 ft | 378 kts | 253° |
| 2026-04-26 06:15 | 46.48628 | 137.88414 | 33951 ft | 377 kts | 253° |
| 2026-04-26 06:16 | 46.47257 | 137.81054 | 33947 ft | 377 kts | 253° |
| 2026-04-26 06:16 | 46.45887 | 137.73737 | 33928 ft | 376 kts | 253° |
| 2026-04-26 06:17 | 46.44512 | 137.66407 | 33928 ft | 376 kts | 253° |
| 2026-04-26 06:17 | 46.43134 | 137.59096 | 33933 ft | 376 kts | 253° |
| 2026-04-26 06:18 | 46.41753 | 137.51793 | 33941 ft | 376 kts | 253° |
| 2026-04-26 06:18 | 46.40364 | 137.44484 | 33943 ft | 376 kts | 253° |
| 2026-04-26 06:19 | 46.38993 | 137.37261 | 33931 ft | 375 kts | 253° |
| 2026-04-26 06:19 | 46.37592 | 137.29959 | 33930 ft | 375 kts | 253° |
| 2026-04-26 06:20 | 46.36196 | 137.22691 | 33932 ft | 374 kts | 254° |
| 2026-04-26 06:20 | 46.34804 | 137.15449 | 33939 ft | 373 kts | 254° |
| 2026-04-26 06:21 | 46.33417 | 137.08237 | 33930 ft | 373 kts | 254° |
| 2026-04-26 06:21 | 46.32020 | 137.01002 | 33929 ft | 373 kts | 254° |
| 2026-04-26 06:22 | 46.30618 | 136.93776 | 33927 ft | 374 kts | 254° |
| 2026-04-26 06:22 | 46.29210 | 136.86545 | 33936 ft | 372 kts | 253° |
| 2026-04-26 06:23 | 46.27800 | 136.79329 | 33931 ft | 373 kts | 253° |
| 2026-04-26 06:23 | 46.26390 | 136.72134 | 33954 ft | 372 kts | 253° |
| 2026-04-26 06:24 | 46.24979 | 136.65007 | 33931 ft | 371 kts | 253° |
| 2026-04-26 06:24 | 46.23543 | 136.57844 | 33929 ft | 371 kts | 253° |
| 2026-04-26 06:25 | 46.22107 | 136.50708 | 33952 ft | 371 kts | 253° |
| 2026-04-26 06:25 | 46.20665 | 136.43555 | 33942 ft | 371 kts | 253° |
| 2026-04-26 06:26 | 46.19221 | 136.36407 | 33917 ft | 372 kts | 252° |
| 2026-04-26 06:26 | 46.18015 | 136.30461 | 33916 ft | 371 kts | 252° |
| 2026-04-26 06:27 | 46.16562 | 136.23319 | 33936 ft | 371 kts | 252° |
| 2026-04-26 06:27 | 46.15102 | 136.16171 | 33925 ft | 371 kts | 252° |
| 2026-04-26 06:28 | 46.13640 | 136.09037 | 33919 ft | 371 kts | 252° |
| 2026-04-26 06:28 | 46.12172 | 136.01903 | 33923 ft | 371 kts | 252° |
| 2026-04-26 06:29 | 46.10702 | 135.94783 | 33932 ft | 371 kts | 252° |
| 2026-04-26 06:29 | 46.09238 | 135.87706 | 33928 ft | 371 kts | 252° |
| 2026-04-26 06:30 | 46.07760 | 135.80596 | 33918 ft | 371 kts | 252° |
| 2026-04-26 06:30 | 46.06405 | 135.73429 | 33923 ft | 371 kts | 254° |
| 2026-04-26 06:31 | 46.05106 | 135.66236 | 33923 ft | 371 kts | 253° |
| 2026-04-26 06:31 | 46.03783 | 135.59075 | 33911 ft | 370 kts | 253° |
| 2026-04-26 06:32 | 46.02452 | 135.51926 | 33924 ft | 369 kts | 253° |
| 2026-04-26 06:32 | 46.01120 | 135.44794 | 33922 ft | 369 kts | 253° |
| 2026-04-26 06:33 | 45.99784 | 135.37661 | 33924 ft | 370 kts | 253° |
| 2026-04-26 06:33 | 45.98442 | 135.30515 | 33922 ft | 370 kts | 253° |
| 2026-04-26 06:34 | 45.97095 | 135.23369 | 33931 ft | 370 kts | 253° |
| 2026-04-26 06:34 | 45.95739 | 135.16206 | 33943 ft | 371 kts | 253° |
| 2026-04-26 06:35 | 45.94377 | 135.09039 | 33925 ft | 373 kts | 253° |
| 2026-04-26 06:35 | 45.93005 | 135.01842 | 33930 ft | 373 kts | 253° |
| 2026-04-26 06:36 | 45.91640 | 134.94712 | 33925 ft | 374 kts | 253° |
| 2026-04-26 06:36 | 45.89471 | 134.88016 | 33958 ft | 375 kts | 231° |
| 2026-04-26 06:37 | 45.85643 | 134.82876 | 33934 ft | 381 kts | 221° |
| 2026-04-26 06:37 | 45.81066 | 134.78880 | 33917 ft | 387 kts | 214° |
| 2026-04-26 06:38 | 45.76306 | 134.75269 | 33918 ft | 387 kts | 214° |
| 2026-04-26 06:38 | 45.71581 | 134.71607 | 33918 ft | 386 kts | 215° |
| 2026-04-26 06:39 | 45.66903 | 134.67887 | 33930 ft | 384 kts | 215° |
| 2026-04-26 06:39 | 45.62242 | 134.64147 | 33923 ft | 383 kts | 215° |
| 2026-04-26 06:40 | 45.57605 | 134.60423 | 33927 ft | 382 kts | 215° |
| 2026-04-26 06:40 | 45.52977 | 134.56714 | 33925 ft | 381 kts | 215° |
| 2026-04-26 06:41 | 45.48348 | 134.53012 | 33928 ft | 381 kts | 215° |
| 2026-04-26 06:41 | 45.43720 | 134.49319 | 33922 ft | 381 kts | 215° |
| 2026-04-26 06:42 | 45.39126 | 134.45660 | 33929 ft | 381 kts | 215° |
| 2026-04-26 06:42 | 45.34491 | 134.41975 | 33926 ft | 382 kts | 215° |
| 2026-04-26 06:43 | 45.29846 | 134.38288 | 33935 ft | 382 kts | 215° |
| 2026-04-26 06:43 | 45.25197 | 134.34606 | 33929 ft | 382 kts | 215° |
| 2026-04-26 06:44 | 45.20551 | 134.30934 | 33928 ft | 383 kts | 215° |
| 2026-04-26 06:44 | 45.15920 | 134.27280 | 33940 ft | 383 kts | 214° |
| 2026-04-26 06:45 | 45.11248 | 134.23600 | 33931 ft | 384 kts | 214° |
| 2026-04-26 06:45 | 45.06575 | 134.19928 | 33951 ft | 385 kts | 214° |
| 2026-04-26 06:46 | 45.01880 | 134.16243 | 33933 ft | 386 kts | 214° |
| 2026-04-26 06:46 | 44.97186 | 134.12568 | 33935 ft | 386 kts | 214° |
| 2026-04-26 06:47 | 44.92473 | 134.08883 | 33932 ft | 387 kts | 214° |
| 2026-04-26 06:47 | 44.87763 | 134.05207 | 33936 ft | 387 kts | 214° |
| 2026-04-26 06:48 | 44.83049 | 134.01535 | 33936 ft | 387 kts | 214° |
| 2026-04-26 06:48 | 44.78379 | 133.97760 | 33929 ft | 386 kts | 215° |
| 2026-04-26 06:49 | 44.73744 | 133.93941 | 33935 ft | 386 kts | 214° |
| 2026-04-26 06:49 | 44.69110 | 133.90132 | 33816 ft | 388 kts | 214° |
| 2026-04-26 06:49 | 44.66790 | 133.88231 | 33338 ft | 389 kts | 214° |
| 2026-04-26 06:50 | 44.64476 | 133.86346 | 32771 ft | 386 kts | 214° |
| 2026-04-26 06:50 | 44.62179 | 133.84478 | 32540 ft | 376 kts | 214° |
| 2026-04-26 06:50 | 44.59895 | 133.82620 | 31931 ft | 376 kts | 214° |
| 2026-04-26 06:50 | 44.57654 | 133.80802 | 31396 ft | 375 kts | 214° |
| 2026-04-26 06:51 | 44.55427 | 133.78993 | 31165 ft | 365 kts | 214° |
| 2026-04-26 06:51 | 44.51026 | 133.75424 | 30097 ft | 365 kts | 214° |
| 2026-04-26 06:51 | 44.48859 | 133.73669 | 29784 ft | 358 kts | 214° |
| 2026-04-26 06:52 | 44.46702 | 133.71921 | 29415 ft | 354 kts | 214° |
| 2026-04-26 06:52 | 44.44567 | 133.70195 | 28821 ft | 355 kts | 214° |
| 2026-04-26 06:52 | 44.42451 | 133.68487 | 28444 ft | 351 kts | 214° |
| 2026-04-26 06:52 | 44.40341 | 133.66783 | 28050 ft | 348 kts | 214° |
| 2026-04-26 06:53 | 44.38244 | 133.65092 | 27573 ft | 347 kts | 214° |
| 2026-04-26 06:53 | 44.36164 | 133.63415 | 27165 ft | 344 kts | 214° |
| 2026-04-26 06:53 | 44.34094 | 133.61748 | 26724 ft | 343 kts | 214° |
| 2026-04-26 06:53 | 44.32034 | 133.60091 | 26300 ft | 341 kts | 214° |
| 2026-04-26 06:54 | 44.29977 | 133.58437 | 25877 ft | 340 kts | 215° |
| 2026-04-26 06:54 | 44.27962 | 133.56818 | 25459 ft | 338 kts | 215° |
| 2026-04-26 06:54 | 44.25929 | 133.55187 | 25037 ft | 336 kts | 215° |
| 2026-04-26 06:54 | 44.23908 | 133.53566 | 24621 ft | 335 kts | 215° |
| 2026-04-26 06:55 | 44.21892 | 133.51951 | 24202 ft | 334 kts | 215° |
| 2026-04-26 06:55 | 44.19884 | 133.50342 | 23781 ft | 332 kts | 215° |
| 2026-04-26 06:55 | 44.17878 | 133.48738 | 23374 ft | 331 kts | 215° |
| 2026-04-26 06:55 | 44.15886 | 133.47144 | 22962 ft | 330 kts | 215° |
| 2026-04-26 06:56 | 44.13902 | 133.45559 | 22561 ft | 328 kts | 214° |
| 2026-04-26 06:56 | 44.11920 | 133.43977 | 22151 ft | 327 kts | 214° |
| 2026-04-26 06:56 | 44.09954 | 133.42408 | 21743 ft | 325 kts | 214° |
| 2026-04-26 06:56 | 44.07999 | 133.40849 | 21347 ft | 323 kts | 214° |
| 2026-04-26 06:57 | 44.06056 | 133.39302 | 20957 ft | 321 kts | 214° |
| 2026-04-26 06:57 | 44.04122 | 133.37764 | 20553 ft | 320 kts | 214° |
| 2026-04-26 06:57 | 44.02183 | 133.36223 | 20168 ft | 318 kts | 214° |
| 2026-04-26 06:57 | 44.00277 | 133.34708 | 19766 ft | 317 kts | 214° |
| 2026-04-26 06:58 | 43.98369 | 133.33192 | 19382 ft | 315 kts | 214° |
| 2026-04-26 06:58 | 43.96457 | 133.31672 | 18930 ft | 318 kts | 210° |
| 2026-04-26 06:58 | 43.94554 | 133.30162 | 18565 ft | 318 kts | 213° |
| 2026-04-26 06:58 | 43.92613 | 133.28630 | 18207 ft | 315 kts | 213° |
| 2026-04-26 06:59 | 43.90743 | 133.27150 | 17825 ft | 312 kts | 214° |
| 2026-04-26 06:59 | 43.88943 | 133.25496 | 17447 ft | 309 kts | 220° |
| 2026-04-26 06:59 | 43.87356 | 133.23504 | 16777 ft | 312 kts | 232° |
| 2026-04-26 06:59 | 43.86211 | 133.20976 | 16487 ft | 307 kts | 240° |
| 2026-04-26 07:00 | 43.85168 | 133.18369 | 16015 ft | 307 kts | 239° |
| 2026-04-26 07:00 | 43.84033 | 133.15897 | 15626 ft | 305 kts | 236° |
| 2026-04-26 07:00 | 43.82817 | 133.13509 | 15324 ft | 301 kts | 235° |
| 2026-04-26 07:00 | 43.81600 | 133.11152 | 14896 ft | 301 kts | 235° |
| 2026-04-26 07:01 | 43.80399 | 133.08800 | 14542 ft | 298 kts | 235° |
| 2026-04-26 07:01 | 43.79216 | 133.06452 | 14169 ft | 297 kts | 236° |
| 2026-04-26 07:01 | 43.78049 | 133.04112 | 13822 ft | 295 kts | 236° |
| 2026-04-26 07:01 | 43.76890 | 133.01773 | 13476 ft | 293 kts | 236° |
| 2026-04-26 07:02 | 43.75744 | 132.99454 | 13104 ft | 292 kts | 236° |
| 2026-04-26 07:02 | 43.74606 | 132.97145 | 12757 ft | 290 kts | 237° |
| 2026-04-26 07:02 | 43.73474 | 132.94850 | 12373 ft | 288 kts | 236° |
| 2026-04-26 07:02 | 43.72356 | 132.92584 | 12092 ft | 283 kts | 236° |
| 2026-04-26 07:03 | 43.71243 | 132.90331 | 11695 ft | 282 kts | 237° |
| 2026-04-26 07:03 | 43.70144 | 132.88103 | 11337 ft | 280 kts | 236° |
| 2026-04-26 07:03 | 43.69052 | 132.85894 | 11010 ft | 277 kts | 236° |
| 2026-04-26 07:03 | 43.67965 | 132.83696 | 10648 ft | 277 kts | 236° |
| 2026-04-26 07:04 | 43.66894 | 132.81535 | 10572 ft | 267 kts | 237° |
| 2026-04-26 07:04 | 43.65866 | 132.79442 | 10359 ft | 261 kts | 238° |
| 2026-04-26 07:04 | 43.64942 | 132.77323 | 10275 ft | 252 kts | 241° |
| 2026-04-26 07:04 | 43.64126 | 132.75259 | 10170 ft | 245 kts | 242° |
| 2026-04-26 07:05 | 43.63334 | 132.73220 | 10046 ft | 237 kts | 242° |
| 2026-04-26 07:05 | 43.62567 | 132.71262 | 9953 ft | 228 kts | 242° |
| 2026-04-26 07:05 | 43.61798 | 132.69314 | 9673 ft | 234 kts | 241° |
| 2026-04-26 07:05 | 43.61007 | 132.67328 | 9461 ft | 240 kts | 241° |
| 2026-04-26 07:06 | 43.60185 | 132.65274 | 9145 ft | 248 kts | 241° |
| 2026-04-26 07:06 | 43.59343 | 132.63179 | 8888 ft | 249 kts | 241° |
| 2026-04-26 07:06 | 43.58498 | 132.61086 | 8566 ft | 251 kts | 241° |
| 2026-04-26 07:06 | 43.57648 | 132.58984 | 8297 ft | 251 kts | 241° |
| 2026-04-26 07:07 | 43.56798 | 132.56883 | 8001 ft | 252 kts | 240° |
| 2026-04-26 07:07 | 43.55887 | 132.54739 | 7382 ft | 265 kts | 239° |
| 2026-04-26 07:07 | 43.54919 | 132.52539 | 6892 ft | 273 kts | 239° |
| 2026-04-26 07:07 | 43.53910 | 132.50257 | 6242 ft | 285 kts | 239° |
| 2026-04-26 07:08 | 43.52880 | 132.47891 | 5696 ft | 291 kts | 240° |
| 2026-04-26 07:08 | 43.51885 | 132.45417 | 5173 ft | 297 kts | 242° |
| 2026-04-26 07:08 | 43.50894 | 132.42889 | 4628 ft | 302 kts | 242° |
| 2026-04-26 07:08 | 43.49888 | 132.40344 | 4143 ft | 302 kts | 242° |
| 2026-04-26 07:09 | 43.48909 | 132.37888 | 4065 ft | 282 kts | 242° |
| 2026-04-26 07:09 | 43.47986 | 132.35582 | 3815 ft | 271 kts | 242° |
| 2026-04-26 07:09 | 43.47075 | 132.33308 | 3303 ft | 273 kts | 242° |
| 2026-04-26 07:09 | 43.46154 | 132.31013 | 2811 ft | 274 kts | 242° |
| 2026-04-26 07:10 | 43.43274 | 132.24519 | 1981 ft | 253 kts | 219° |
| 2026-04-26 07:11 | 43.40174 | 132.23840 | 1938 ft | 227 kts | 153° |
| 2026-04-26 07:11 | 43.38958 | 132.25140 | 2035 ft | 222 kts | 123° |
| 2026-04-26 07:11 | 43.38473 | 132.27093 | 2170 ft | 218 kts | 89° |
| 2026-04-26 07:11 | 43.38738 | 132.29153 | 2238 ft | 219 kts | 73° |
| 2026-04-26 07:12 | 43.39159 | 132.31175 | 2190 ft | 220 kts | 72° |
| 2026-04-26 07:12 | 43.39596 | 132.33157 | 2193 ft | 213 kts | 68° |
| 2026-04-26 07:12 | 43.40357 | 132.34820 | 2195 ft | 202 kts | 39° |
| 2026-04-26 07:12 | 43.41517 | 132.35878 | 2174 ft | 200 kts | 30° |
| 2026-04-26 07:13 | 43.42706 | 132.36796 | 2191 ft | 195 kts | 23° |
| 2026-04-26 07:13 | 43.44011 | 132.37041 | 2194 ft | 189 kts | 347° |
| 2026-04-26 07:13 | 43.45096 | 132.36131 | 2187 ft | 184 kts | 310° |
| 2026-04-26 07:13 | 43.45704 | 132.34555 | 2213 ft | 189 kts | 295° |
| 2026-04-26 07:14 | 43.46210 | 132.32920 | 2210 ft | 180 kts | 292° |
| 2026-04-26 07:14 | 43.46374 | 132.31270 | 2152 ft | 175 kts | 255° |
| 2026-04-26 07:14 | 43.45754 | 132.29862 | 2203 ft | 175 kts | 236° |
| 2026-04-26 07:14 | 43.45132 | 132.28418 | 1965 ft | 172 kts | 243° |
| 2026-04-26 07:15 | 43.44763 | 132.27472 | 1794 ft | 167 kts | 243° |
| 2026-04-26 07:15 | 43.44215 | 132.26102 | 1582 ft | 160 kts | 242° |
| 2026-04-26 07:15 | 43.43669 | 132.24755 | 1354 ft | 161 kts | 242° |
| 2026-04-26 07:15 | 43.42954 | 132.23011 | 1113 ft | 156 kts | 242° |
| 2026-04-26 07:16 | 43.42590 | 132.22124 | 927 ft | 160 kts | 242° |
| 2026-04-26 07:16 | 43.42036 | 132.20794 | 734 ft | 158 kts | 242° |
| 2026-04-26 07:16 | 43.41511 | 132.19463 | 550 ft | 156 kts | 243° |
| 2026-04-26 07:16 | 43.40983 | 132.18155 | 324 ft | 158 kts | 241° |
| 2026-04-26 07:17 | 43.40447 | 132.16844 | 124 ft | 155 kts | 241° |
| 2026-04-26 07:17 | 43.39947 | 132.15618 | 65 ft | 138 kts | 240° |
| 2026-04-26 07:17 | 43.39558 | 132.14645 | 68 ft | 88 kts | 240° |
| 2026-04-26 07:17 | 43.39396 | 132.14229 | 70 ft | 19 kts | 239° |
| 2026-04-26 07:18 | 43.39339 | 132.14189 | 67 ft | 0 kts | 173° |
| 2026-04-26 07:18 | 43.39321 | 132.14196 | 61 ft | 5 kts | 158° |
| 2026-04-26 07:18 | 43.39291 | 132.14220 | 60 ft | 5 kts | 149° |
| 2026-04-26 07:18 | 43.39258 | 132.14246 | 67 ft | 5 kts | 149° |
| 2026-04-26 07:19 | 43.39208 | 132.14293 | 68 ft | 11 kts | 129° |
| 2026-04-26 07:19 | 43.39217 | 132.14390 | 67 ft | 11 kts | 62° |
| 2026-04-26 07:19 | 43.39254 | 132.14478 | 64 ft | 10 kts | 60° |
| 2026-04-26 07:19 | 43.39289 | 132.14564 | 67 ft | 10 kts | 61° |
| 2026-04-26 07:20 | 43.39322 | 132.14647 | 68 ft | 9 kts | 61° |
| 2026-04-26 07:20 | 43.39355 | 132.14729 | 66 ft | 12 kts | 61° |
| 2026-04-26 07:20 | 43.39396 | 132.14833 | 65 ft | 12 kts | 61° |
| 2026-04-26 07:20 | 43.39437 | 132.14935 | 68 ft | 12 kts | 61° |
| 2026-04-26 07:21 | 43.39477 | 132.15034 | 68 ft | 12 kts | 61° |
| 2026-04-26 07:21 | 43.39516 | 132.15131 | 65 ft | 11 kts | 60° |
| 2026-04-26 07:21 | 43.39554 | 132.15224 | 68 ft | 11 kts | 61° |
| 2026-04-26 07:21 | 43.39592 | 132.15317 | 68 ft | 12 kts | 61° |
| 2026-04-26 07:22 | 43.39635 | 132.15423 | 64 ft | 14 kts | 61° |
| 2026-04-26 07:22 | 43.39687 | 132.15551 | 65 ft | 16 kts | 61° |
| 2026-04-26 07:22 | 43.39734 | 132.15670 | 65 ft | 12 kts | 65° |
| 2026-04-26 07:22 | 43.39695 | 132.15753 | 68 ft | 11 kts | 150° |
| 2026-04-26 07:23 | 43.39634 | 132.15815 | 64 ft | 11 kts | 112° |
| 2026-04-26 07:23 | 43.39658 | 132.15911 | 68 ft | 11 kts | 61° |
| 2026-04-26 07:23 | 43.39693 | 132.15998 | 68 ft | 10 kts | 61° |
| 2026-04-26 07:23 | 43.39728 | 132.16083 | 68 ft | 10 kts | 60° |
| 2026-04-26 07:24 | 43.39758 | 132.16166 | 67 ft | 9 kts | 79° |
| 2026-04-26 07:24 | 43.39742 | 132.16250 | 64 ft | 9 kts | 96° |
| 2026-04-26 07:24 | 43.39762 | 132.16329 | 68 ft | 9 kts | 61° |
| 2026-04-26 07:24 | 43.39785 | 132.16402 | 66 ft | 8 kts | 91° |
| 2026-04-26 07:25 | 43.39750 | 132.16458 | 65 ft | 8 kts | 151° |
| 2026-04-26 07:25 | 43.39730 | 132.16473 | 68 ft | 1 kts | 152° |
| 2026-04-26 07:25 | 43.39723 | 132.16478 | 60 ft | 1 kts | 152° |
| 2026-04-26 07:25 | 43.39716 | 132.16483 | 63 ft | 1 kts | 152° |
| 2026-04-26 07:26 | 43.39714 | 132.16484 | 64 ft | 0 kts | 152° |
| 2026-04-26 07:26 | 43.39714 | 132.16485 | 68 ft | 0 kts | 152° |